Time;durP1;ratioP1;P1;durP2;ratioP2;P2;SDS_P1;SDS_P2;PMS_P1;PMS_P2;Temp;Humidity;BMP_temperature;BMP_pressure;BME280_temperature;BME280_humidity;BME280_pressure;Samples;Min_cycle;Max_cycle;Signal;HPM_P1;HPM_P2
2021/06/05 00:02:27;;;;;;;;;;;;;;;11.60;56.39;97820.43;1609810;89;20108;-85
2021/06/05 00:05:14;;;;;;;;;;;;;;;11.56;56.93;97820.64;1570302;91;20106;-84
2021/06/05 00:07:51;;;;;;;;;;;;;;;11.54;56.24;97819.94;1581273;88;20210;-83
2021/06/05 00:10:30;;;;;;;;;;;;;;;11.51;56.47;97813.55;1638292;87;20152;-83
2021/06/05 00:12:58;;;;;;;;;;;;;;;11.49;56.66;97806.21;1661597;87;20135;-82
2021/06/05 00:15:32;;;;;;;;;;;;;;;11.47;57.07;97811.24;1662000;87;20121;-83
2021/06/05 00:17:59;;;;;;;;;;;;;;;11.44;55.56;97805.72;1661206;86;20094;-83
2021/06/05 00:20:28;;;;;;;;;;;;;;;11.44;55.79;97806.17;1654165;86;20153;-81
2021/06/05 00:22:54;;;;;;;;;;;;;;;11.40;56.34;97802.92;1634690;87;20159;-83
2021/06/05 00:25:21;;;;;;;;;;;;;;;11.36;56.48;97798.34;1657651;87;20111;-82
2021/06/05 00:27:53;;;;;;;;;;;;;;;11.34;56.32;97795.45;1657168;87;20164;-83
2021/06/05 00:30:29;;;;;;;;;;;;;;;11.30;56.84;97799.26;1650396;87;20161;-82
2021/06/05 00:33:02;;;;;;;;;;;;;;;11.29;57.25;97802.84;1663521;86;20117;-83
2021/06/05 00:35:37;;;;;;;;;;;;;;;11.27;56.95;97800.81;1670681;85;20109;-82
2021/06/05 00:38:09;;;;;;;;;;;;;;;11.23;56.89;97801.48;1665780;86;20131;-83
2021/06/05 00:40:42;;;;;;;;;;;;;;;11.21;57.07;97802.09;1656513;86;20161;-83
2021/06/05 00:43:14;;;;;;;;;;;;;;;11.20;58.71;97803.05;1671128;86;20090;-83
2021/06/05 00:45:45;;;;;;;;;;;;;;;11.18;59.12;97801.81;1675391;86;20149;-82
2021/06/05 00:48:16;;;;;;;;;;;;;;;11.16;58.50;97799.79;1653003;86;20157;-82
2021/06/05 00:50:47;;;;;;;;;;;;;;;11.14;58.65;97796.41;1675219;85;20080;-83
2021/06/05 00:53:15;;;;;;;;;;;;;;;11.12;58.36;97795.67;1677215;86;20491;-83
2021/06/05 00:55:47;;;;;;;;;;;;;;;11.10;58.99;97804.16;1677148;86;20191;-83
2021/06/05 00:58:15;;;;;;;;;;;;;;;11.08;58.62;97797.69;1676110;86;20157;-82
2021/06/05 01:00:51;;;;;;;;;;;;;;;11.07;57.43;97799.95;1652536;86;20113;-82
2021/06/05 01:03:22;;;;;;;;;;;;;;;11.07;57.72;97801.77;1655889;85;20161;-83
2021/06/05 01:05:54;;;;;;;;;;;;;;;11.06;59.43;97801.39;1682197;85;20093;-80
2021/06/05 01:08:42;;;;;;;;;;;;;;;11.03;57.21;97798.96;1659321;85;20120;-82
2021/06/05 01:11:28;;;;;;;;;;;;;;;11.01;57.53;97793.80;1752876;81;20102;-81
2021/06/05 01:14:19;;;;;;;;;;;;;;;11.00;57.78;97794.75;1770407;81;20098;-86
2021/06/05 01:16:47;;;;;;;;;;;;;;;10.96;57.72;97789.80;1771257;81;20099;-83
2021/06/05 01:19:26;;;;;;;;;;;;;;;10.91;59.66;97785.69;1771208;81;20187;-82
2021/06/05 01:22:05;;;;;;;;;;;;;;;10.90;57.82;97782.67;1770254;81;20428;-80
2021/06/05 01:24:50;;;;;;;;;;;;;;;10.88;58.22;97783.74;1770527;81;20122;-81
2021/06/05 01:27:33;;;;;;;;;;;;;;;10.86;58.32;97782.54;1770289;81;20087;-81
2021/06/05 01:30:03;;;;;;;;;;;;;;;10.83;59.15;97781.43;1771671;80;20114;-82
2021/06/05 01:32:32;;;;;;;;;;;;;;;10.81;59.43;97778.05;1770441;81;20071;-80
2021/06/05 01:34:58;;;;;;;;;;;;;;;10.80;59.31;97779.03;1766643;81;20075;-82
2021/06/05 01:37:27;;;;;;;;;;;;;;;10.78;58.85;97777.80;1766594;81;20380;-79
2021/06/05 01:39:55;;;;;;;;;;;;;;;10.77;57.69;97775.28;1765127;81;20103;-80
2021/06/05 01:42:26;;;;;;;;;;;;;;;10.76;60.36;97782.82;1766591;81;20111;-81
2021/06/05 01:44:56;;;;;;;;;;;;;;;10.75;59.75;97777.17;1768825;81;20157;-83
2021/06/05 01:47:23;;;;;;;;;;;;;;;10.72;57.99;97776.06;1768884;81;20110;-84
2021/06/05 01:49:50;;;;;;;;;;;;;;;10.71;59.31;97783.63;1768807;81;20124;-81
2021/06/05 01:52:21;;;;;;;;;;;;;;;10.69;58.76;97781.08;1768812;81;20102;-81
2021/06/05 01:55:10;;;;;;;;;;;;;;;10.68;60.02;97783.34;1770084;81;20098;-81
2021/06/05 01:57:39;;;;;;;;;;;;;;;10.68;60.49;97781.20;1741052;81;20067;-81
2021/06/05 02:00:31;;;;;;;;;;;;;;;10.65;59.11;97777.45;1768694;81;20108;-81
2021/06/05 02:03:01;;;;;;;;;;;;;;;10.62;59.16;97774.06;1770972;81;20079;-82
2021/06/05 02:05:30;;;;;;;;;;;;;;;10.61;58.60;97771.09;1770120;81;20078;-80
2021/06/05 02:07:58;;;;;;;;;;;;;;;10.59;58.00;97774.76;1770288;80;20130;-80
2021/06/05 02:10:28;;;;;;;;;;;;;;;10.59;59.98;97772.12;1771073;81;20071;-81
2021/06/05 02:12:56;;;;;;;;;;;;;;;10.57;58.17;97769.60;1770973;81;20114;-81
2021/06/05 02:15:39;;;;;;;;;;;;;;;10.55;59.21;97777.25;1770065;81;20206;-80
2021/06/05 02:18:11;;;;;;;;;;;;;;;10.52;59.15;97776.14;1770388;81;20119;-80
2021/06/05 02:20:41;;;;;;;;;;;;;;;10.49;60.11;97767.98;1779108;80;20108;-81
2021/06/05 02:23:13;;;;;;;;;;;;;;;10.48;58.67;97766.29;1791064;80;20088;-80
2021/06/05 02:25:42;;;;;;;;;;;;;;;10.51;61.04;97771.81;1790969;80;20100;-80
2021/06/05 02:28:08;;;;;;;;;;;;;;;10.52;58.70;97769.09;1791178;80;20108;-80
2021/06/05 02:30:34;;;;;;;;;;;;;;;10.54;58.29;97763.22;1791089;80;20401;-80
2021/06/05 02:33:03;;;;;;;;;;;;;;;10.57;58.54;97765.65;1776966;80;20093;-80
2021/06/05 02:35:34;;;;;;;;;;;;;;;10.59;59.23;97772.12;1790943;80;20385;-80
2021/06/05 02:38:06;;;;;;;;;;;;;;;10.59;58.54;97758.48;1790818;80;20120;-84
2021/06/05 02:40:36;;;;;;;;;;;;;;;10.65;59.61;97766.90;1790572;80;20167;-80
2021/06/05 02:43:06;;;;;;;;;;;;;;;10.67;61.17;97761.88;1791082;80;20124;-81
2021/06/05 02:45:40;;;;;;;;;;;;;;;10.72;59.73;97760.23;1791081;80;20124;-81
2021/06/05 02:48:07;;;;;;;;;;;;;;;10.77;59.81;97764.24;1775356;80;20096;-80
2021/06/05 02:50:39;;;;;;;;;;;;;;;10.83;59.87;97759.50;1790741;80;20097;-79
2021/06/05 02:53:07;;;;;;;;;;;;;;;10.89;59.83;97757.73;1790802;80;20108;-79
2021/06/05 02:55:34;;;;;;;;;;;;;;;10.95;59.31;97758.61;1790796;80;20155;-80
2021/06/05 02:58:05;;;;;;;;;;;;;;;11.02;59.87;97761.20;1790796;80;20109;-80
2021/06/05 03:00:37;;;;;;;;;;;;;;;11.08;59.52;97756.80;1790253;80;20691;-80
2021/06/05 03:03:06;;;;;;;;;;;;;;;11.13;59.68;97750.36;1790560;80;20176;-79
2021/06/05 03:05:35;;;;;;;;;;;;;;;11.16;59.51;97751.44;1790321;80;20160;-80
2021/06/05 03:08:03;;;;;;;;;;;;;;;11.21;59.13;97744.87;1790448;80;20092;-81
2021/06/05 03:10:31;;;;;;;;;;;;;;;11.23;59.40;97753.53;1787374;80;20133;-79
2021/06/05 03:13:00;;;;;;;;;;;;;;;11.29;59.28;97748.28;1772964;81;20457;-80
2021/06/05 03:15:27;;;;;;;;;;;;;;;11.35;59.09;97743.04;1773631;80;20442;-79
2021/06/05 03:17:55;;;;;;;;;;;;;;;11.41;59.57;97743.90;1791337;80;20132;-79
2021/06/05 03:20:24;;;;;;;;;;;;;;;11.44;59.42;97744.14;1791074;80;20452;-78
2021/06/05 03:22:51;;;;;;;;;;;;;;;11.48;58.58;97746.44;1789405;80;20101;-79
2021/06/05 03:25:19;;;;;;;;;;;;;;;11.52;59.28;97744.42;1782561;80;20107;-78
2021/06/05 03:27:45;;;;;;;;;;;;;;;11.53;58.95;97743.00;1780660;81;20148;-79
2021/06/05 03:30:14;;;;;;;;;;;;;;;11.56;59.29;97737.97;1781033;81;20096;-82
2021/06/05 03:32:42;;;;;;;;;;;;;;;11.57;58.27;97739.66;1781443;81;20103;-79
2021/06/05 03:35:10;;;;;;;;;;;;;;;11.60;59.27;97738.58;1781301;80;20476;-79
2021/06/05 03:37:38;;;;;;;;;;;;;;;11.62;58.15;97741.46;1781223;81;20412;-82
2021/06/05 03:40:08;;;;;;;;;;;;;;;11.68;58.41;97744.13;1751100;81;20095;-82
2021/06/05 03:42:34;;;;;;;;;;;;;;;11.71;59.43;97746.06;1781452;80;20123;-79
2021/06/05 03:45:06;;;;;;;;;;;;;;;11.74;59.25;97746.30;1781765;80;20111;-84
2021/06/05 03:47:33;;;;;;;;;;;;;;;11.79;58.38;97742.85;1780378;80;20161;-82
2021/06/05 03:50:01;;;;;;;;;;;;;;;11.88;58.15;97739.52;1788599;80;20169;-88
2021/06/05 03:52:29;;;;;;;;;;;;;;;12.13;58.24;97742.96;1787861;80;20092;-82
2021/06/05 03:54:56;;;;;;;;;;;;;;;12.65;58.17;97747.34;1781242;80;20170;-90
2021/06/05 03:57:24;;;;;;;;;;;;;;;13.24;57.71;97745.81;1774073;81;20232;-89
2021/06/05 03:59:52;;;;;;;;;;;;;;;13.87;56.86;97747.30;1773950;81;20122;-82
2021/06/05 04:02:19;;;;;;;;;;;;;;;14.53;55.61;97751.95;1773989;81;20153;-88
2021/06/05 04:04:45;;;;;;;;;;;;;;;15.17;54.19;97753.13;1773890;81;20168;-91
2021/06/05 04:07:12;;;;;;;;;;;;;;;15.82;52.58;97749.97;1783596;80;20108;-82
2021/06/05 04:09:40;;;;;;;;;;;;;;;16.41;53.01;97746.76;1786790;80;20132;-80
2021/06/05 04:12:07;;;;;;;;;;;;;;;16.92;51.84;97738.45;1788426;80;20172;-83
2021/06/05 04:14:33;;;;;;;;;;;;;;;17.41;49.53;97739.01;1774913;80;20457;-81
2021/06/05 04:17:00;;;;;;;;;;;;;;;17.92;49.05;97735.30;1773691;81;20124;-79
2021/06/05 04:19:26;;;;;;;;;;;;;;;18.40;47.63;97735.01;1785515;80;20100;-80
2021/06/05 04:21:53;;;;;;;;;;;;;;;18.80;46.54;97728.70;1795503;79;20115;-83
2021/06/05 04:24:19;;;;;;;;;;;;;;;19.23;45.80;97732.25;1794013;80;20116;-89
2021/06/05 04:26:46;;;;;;;;;;;;;;;19.74;45.28;97729.98;1753951;82;20111;-85
2021/06/05 04:29:12;;;;;;;;;;;;;;;20.27;45.54;97730.02;1754363;81;20123;-81
2021/06/05 04:31:39;;;;;;;;;;;;;;;20.66;42.24;97716.84;1754391;82;20135;-81
2021/06/05 04:34:05;;;;;;;;;;;;;;;21.01;39.57;97721.45;1753975;82;20103;-86
2021/06/05 04:36:31;;;;;;;;;;;;;;;21.51;39.17;97717.98;1766767;81;20096;-84
2021/06/05 04:38:58;;;;;;;;;;;;;;;21.89;41.92;97712.70;1779058;81;20142;-84
2021/06/05 04:41:24;;;;;;;;;;;;;;;22.26;38.04;97715.55;1775412;79;20144;-83
2021/06/05 04:43:52;;;;;;;;;;;;;;;22.60;35.14;97712.38;1765272;81;20096;-82
2021/06/05 04:46:18;;;;;;;;;;;;;;;22.95;37.97;97713.64;1765515;81;20377;-86
2021/06/05 04:48:46;;;;;;;;;;;;;;;23.28;37.45;97715.41;1765477;81;20195;-81
2021/06/05 04:51:16;;;;;;;;;;;;;;;23.56;40.77;97717.37;1765571;81;20104;-88
2021/06/05 04:53:43;;;;;;;;;;;;;;;23.74;34.24;97721.47;1765781;81;20141;-79
2021/06/05 04:56:09;;;;;;;;;;;;;;;23.88;41.20;97709.81;1741735;81;20397;-81
2021/06/05 04:58:36;;;;;;;;;;;;;;;23.99;37.00;97711.17;1765513;81;20393;-89
2021/06/05 05:01:02;;;;;;;;;;;;;;;23.72;39.64;97714.94;1765443;81;20108;-86
2021/06/05 05:03:30;;;;;;;;;;;;;;;23.39;37.29;97710.04;1767282;79;20134;-86
2021/06/05 05:06:02;;;;;;;;;;;;;;;23.30;36.71;97709.84;1762823;80;20496;-86
2021/06/05 05:08:30;;;;;;;;;;;;;;;23.53;38.06;97713.70;1784460;80;20185;-90
2021/06/05 05:10:58;;;;;;;;;;;;;;;23.93;35.55;97710.05;1790568;80;20485;-81
2021/06/05 05:13:27;;;;;;;;;;;;;;;24.39;35.42;97707.94;1789838;80;20506;-89
2021/06/05 05:15:54;;;;;;;;;;;;;;;24.86;33.34;97706.37;1790173;80;20134;-82
2021/06/05 05:18:22;;;;;;;;;;;;;;;25.43;31.24;97706.73;1789989;80;20458;-79
2021/06/05 05:20:51;;;;;;;;;;;;;;;25.95;30.95;97706.48;1789486;80;20133;-86
2021/06/05 05:23:19;;;;;;;;;;;;;;;26.26;32.11;97701.01;1790194;80;20477;-90
2021/06/05 05:25:46;;;;;;;;;;;;;;;26.61;31.60;97694.48;1790157;80;20149;-85
2021/06/05 05:28:14;;;;;;;;;;;;;;;27.07;28.62;97689.45;1790288;80;20121;-83
2021/06/05 05:30:44;;;;;;;;;;;;;;;27.43;29.08;97692.11;1791436;80;20102;-81
2021/06/05 05:33:11;;;;;;;;;;;;;;;27.69;30.79;97692.16;1787899;80;20134;-80
2021/06/05 05:35:37;;;;;;;;;;;;;;;27.93;31.35;97694.59;1790297;80;20454;-81
2021/06/05 05:38:05;;;;;;;;;;;;;;;28.02;30.96;97695.16;1790402;80;20188;-86
2021/06/05 05:40:33;;;;;;;;;;;;;;;28.05;29.67;97689.27;1790027;80;20193;-82
2021/06/05 05:42:59;;;;;;;;;;;;;;;28.11;27.73;97689.80;1790118;80;20137;-80
2021/06/05 05:45:26;;;;;;;;;;;;;;;28.21;25.81;97690.09;1790420;80;20133;-82
2021/06/05 05:47:56;;;;;;;;;;;;;;;27.97;25.47;97687.69;1790402;80;20187;-85
2021/06/05 05:50:24;;;;;;;;;;;;;;;27.36;27.84;97694.00;1790548;80;20133;-84
2021/06/05 05:52:50;;;;;;;;;;;;;;;27.32;27.99;97698.20;1790865;80;20488;-82
2021/06/05 05:55:17;;;;;;;;;;;;;;;27.35;28.35;97699.10;1790640;80;20470;-82
2021/06/05 05:57:47;;;;;;;;;;;;;;;27.35;29.01;97700.99;1790616;80;20133;-90
2021/06/05 06:00:16;;;;;;;;;;;;;;;27.36;28.23;97697.24;1790198;80;20152;-81
2021/06/05 06:02:42;;;;;;;;;;;;;;;27.47;28.68;97696.56;1790234;80;20180;-81
2021/06/05 06:05:10;;;;;;;;;;;;;;;27.48;28.46;97694.70;1790428;80;20177;-81
2021/06/05 06:07:36;;;;;;;;;;;;;;;27.65;27.18;97699.90;1790226;80;20205;-81
2021/06/05 06:10:04;;;;;;;;;;;;;;;27.86;28.86;97701.41;1790812;80;20497;-91
2021/06/05 06:12:30;;;;;;;;;;;;;;;28.12;27.34;97700.91;1790443;80;20153;-83
2021/06/05 06:14:58;;;;;;;;;;;;;;;28.41;26.38;97700.45;1789728;80;20133;-87
2021/06/05 06:17:26;;;;;;;;;;;;;;;28.69;25.08;97698.59;1757016;80;20130;-78
2021/06/05 06:19:52;;;;;;;;;;;;;;;28.94;25.63;97698.55;1790068;80;20137;-80
2021/06/05 06:22:18;;;;;;;;;;;;;;;29.12;28.12;97694.99;1790249;80;20121;-86
2021/06/05 06:24:47;;;;;;;;;;;;;;;29.37;26.53;97684.56;1790109;80;20153;-77
2021/06/05 06:27:13;;;;;;;;;;;;;;;29.72;30.10;97680.30;1790333;80;20161;-79
2021/06/05 06:29:40;;;;;;;;;;;;;;;29.59;24.33;97682.69;1790571;80;20138;-84
2021/06/05 06:32:07;;;;;;;;;;;;;;;29.37;24.12;97679.67;1790755;80;20269;-91
2021/06/05 06:34:34;;;;;;;;;;;;;;;29.70;25.02;97677.80;1784194;80;20469;-84
2021/06/05 06:37:04;;;;;;;;;;;;;;;30.12;26.52;97674.77;1767107;80;20486;-81
2021/06/05 06:39:31;;;;;;;;;;;;;;;30.32;26.36;97668.96;1790452;80;20147;-80
2021/06/05 06:41:57;;;;;;;;;;;;;;;30.45;24.56;97668.73;1790238;80;20118;-84
2021/06/05 06:44:24;;;;;;;;;;;;;;;30.73;23.89;97666.34;1790511;80;20152;-88
2021/06/05 06:46:50;;;;;;;;;;;;;;;30.33;24.31;97666.55;1782059;80;20162;-86
2021/06/05 06:49:19;;;;;;;;;;;;;;;29.29;26.15;97668.02;1764204;81;20150;-81
2021/06/05 06:51:45;;;;;;;;;;;;;;;28.55;27.06;97665.37;1764930;81;20110;-80
2021/06/05 06:54:13;;;;;;;;;;;;;;;27.72;27.29;97666.02;1764495;81;20423;-87
2021/06/05 06:56:40;;;;;;;;;;;;;;;27.40;26.03;97664.12;1763783;81;20252;-80
2021/06/05 06:59:07;;;;;;;;;;;;;;;27.41;27.20;97663.58;1763452;81;20157;-79
2021/06/05 07:01:34;;;;;;;;;;;;;;;27.11;27.07;97659.59;1763702;81;20122;-87
2021/06/05 07:04:00;;;;;;;;;;;;;;;26.97;28.32;97659.34;1763572;81;20150;-80
2021/06/05 07:06:30;;;;;;;;;;;;;;;27.09;27.19;97656.80;1764199;81;20129;-82
2021/06/05 07:08:57;;;;;;;;;;;;;;;27.01;28.96;97656.52;1764180;81;20480;-82
2021/06/05 07:11:32;;;;;;;;;;;;;;;26.98;27.95;97657.48;1764470;81;20186;-84
2021/06/05 07:14:00;;;;;;;;;;;;;;;26.40;28.22;97657.23;1763984;81;20126;-78
2021/06/05 07:16:27;;;;;;;;;;;;;;;26.61;28.21;97651.23;1763943;81;20165;-85
2021/06/05 07:18:53;;;;;;;;;;;;;;;26.89;28.76;97650.11;1763898;81;20146;-79
2021/06/05 07:21:20;;;;;;;;;;;;;;;27.00;26.35;97646.74;1766474;80;20754;-81
2021/06/05 07:23:47;;;;;;;;;;;;;;;27.00;27.45;97642.69;1785800;80;20119;-80
2021/06/05 07:26:16;;;;;;;;;;;;;;;26.62;27.32;97643.44;1785986;80;20152;-86
2021/06/05 07:28:45;;;;;;;;;;;;;;;26.85;28.11;97636.20;1785078;79;20137;-85
2021/06/05 07:31:19;;;;;;;;;;;;;;;27.49;27.85;97632.22;1787856;80;20131;-80
2021/06/05 07:33:47;;;;;;;;;;;;;;;28.02;25.56;97632.31;1786536;80;20127;-83
2021/06/05 07:36:17;;;;;;;;;;;;;;;27.81;25.37;97628.64;1786013;80;20116;-81
2021/06/05 07:38:45;;;;;;;;;;;;;;;27.69;26.01;97632.09;1785340;80;20116;-86
2021/06/05 07:41:11;;;;;;;;;;;;;;;27.75;25.32;97627.64;1785719;80;20128;-86
2021/06/05 07:43:39;;;;;;;;;;;;;;;28.07;26.31;97627.61;1785843;80;20465;-84
2021/06/05 07:46:05;;;;;;;;;;;;;;;28.60;26.70;97624.86;1785959;80;20149;-81
2021/06/05 07:48:32;;;;;;;;;;;;;;;28.56;25.00;97616.05;1786085;80;20221;-80
2021/06/05 07:50:59;;;;;;;;;;;;;;;27.86;23.84;97615.28;1771279;80;20536;-83
2021/06/05 07:53:27;;;;;;;;;;;;;;;27.74;25.51;97615.99;1768247;81;20183;-83
2021/06/05 07:55:53;;;;;;;;;;;;;;;27.50;25.12;97618.98;1768580;81;20464;-85
2021/06/05 07:58:20;;;;;;;;;;;;;;;27.89;24.50;97616.17;1768437;81;20092;-85
2021/06/05 08:00:46;;;;;;;;;;;;;;;27.89;24.09;97611.59;1768156;81;20174;-84
2021/06/05 08:03:12;;;;;;;;;;;;;;;27.48;25.56;97607.55;1768305;81;20135;-81
2021/06/05 08:05:39;;;;;;;;;;;;;;;27.47;25.70;97604.53;1768796;81;20136;-83
2021/06/05 08:08:07;;;;;;;;;;;;;;;27.28;26.55;97608.48;1768792;81;20163;-88
2021/06/05 08:10:33;;;;;;;;;;;;;;;27.42;26.35;97602.99;1776960;79;20163;-81
2021/06/05 08:13:00;;;;;;;;;;;;;;;27.42;26.18;97601.64;1774530;80;20116;-81
2021/06/05 08:15:29;;;;;;;;;;;;;;;27.29;26.55;97601.21;1772096;80;20168;-81
2021/06/05 08:17:56;;;;;;;;;;;;;;;27.24;25.81;97598.31;1771870;81;20195;-82
2021/06/05 08:20:25;;;;;;;;;;;;;;;26.87;26.23;97596.77;1771760;80;20148;-80
2021/06/05 08:22:51;;;;;;;;;;;;;;;26.81;26.15;97595.78;1778067;80;20120;-82
2021/06/05 08:25:18;;;;;;;;;;;;;;;27.06;27.15;97585.01;1787225;80;20100;-81
2021/06/05 08:27:44;;;;;;;;;;;;;;;27.28;26.28;97579.26;1787094;80;20140;-82
2021/06/05 08:30:14;;;;;;;;;;;;;;;27.35;25.66;97580.03;1787360;80;20108;-89
2021/06/05 08:32:41;;;;;;;;;;;;;;;27.31;25.87;97581.53;1786784;80;20105;-86
2021/06/05 08:35:07;;;;;;;;;;;;;;;27.35;25.81;97580.57;1787075;80;20417;-86
2021/06/05 08:37:35;;;;;;;;;;;;;;;27.17;26.01;97581.30;1789848;80;20221;-81
2021/06/05 08:40:07;;;;;;;;;;;;;;;26.74;26.64;97586.81;1793886;80;20428;-79
2021/06/05 08:42:41;;;;;;;;;;;;;;;26.62;27.09;97593.42;1799067;80;20147;-86
2021/06/05 08:45:09;;;;;;;;;;;;;;;26.46;27.33;97592.87;1762462;81;20122;-81
2021/06/05 08:47:38;;;;;;;;;;;;;;;26.26;26.72;97592.09;1762914;80;20133;-84
2021/06/05 08:50:15;;;;;;;;;;;;;;;26.15;26.58;97586.30;1754190;81;20160;-84
2021/06/05 08:53:03;;;;;;;;;;;;;;;26.30;27.46;97586.59;1773911;81;20112;-91
2021/06/05 08:55:42;;;;;;;;;;;;;;;26.50;24.58;97580.58;1779191;80;20424;-82
2021/06/05 08:58:33;;;;;;;;;;;;;;;26.28;25.73;97586.78;1793090;80;20407;-82
2021/06/05 09:01:06;;;;;;;;;;;;;;;25.95;25.60;97582.27;1793279;80;20129;-80
2021/06/05 09:03:35;;;;;;;;;;;;;;;25.88;25.08;97578.22;1792061;80;20096;-84
2021/06/05 09:06:14;;;;;;;;;;;;;;;25.70;24.99;97580.23;1793181;80;20132;-81
2021/06/05 09:08:40;;;;;;;;;;;;;;;25.68;25.42;97577.41;1793539;79;20396;-84
2021/06/05 09:11:07;;;;;;;;;;;;;;;25.60;25.21;97577.63;1793529;80;20407;-80
2021/06/05 09:13:34;;;;;;;;;;;;;;;25.22;24.69;97578.50;1793423;80;20432;-81
2021/06/05 09:16:21;;;;;;;;;;;;;;;25.27;25.21;97579.23;1793561;80;20112;-87
2021/06/05 09:18:53;;;;;;;;;;;;;;;25.50;24.63;97578.87;1793688;80;20144;-89
2021/06/05 09:21:29;;;;;;;;;;;;;;;25.55;24.87;97576.89;1793142;80;20100;-86
2021/06/05 09:24:10;;;;;;;;;;;;;;;25.49;23.06;97566.41;1790276;78;20468;-82
2021/06/05 09:26:36;;;;;;;;;;;;;;;25.58;24.66;97565.70;1775960;80;20109;-80
2021/06/05 09:29:18;;;;;;;;;;;;;;;25.83;24.12;97563.19;1766204;81;20360;-84
2021/06/05 09:31:59;;;;;;;;;;;;;;;26.08;24.92;97556.28;1769045;80;20191;-85
2021/06/05 09:34:34;;;;;;;;;;;;;;;26.22;24.76;97546.30;1787538;80;20152;-88
2021/06/05 09:37:02;;;;;;;;;;;;;;;26.30;24.38;97551.47;1787666;80;20104;-89
2021/06/05 09:39:43;;;;;;;;;;;;;;;26.10;23.70;97548.31;1787404;80;20136;-83
2021/06/05 09:42:12;;;;;;;;;;;;;;;26.06;24.26;97548.91;1785557;80;20404;-83
2021/06/05 09:44:44;;;;;;;;;;;;;;;25.70;22.75;97542.95;1787515;80;20085;-80
2021/06/05 09:47:13;;;;;;;;;;;;;;;25.48;23.98;97542.34;1787923;80;20092;-83
2021/06/05 09:49:46;;;;;;;;;;;;;;;25.22;22.99;97540.74;1787194;80;20092;-83
2021/06/05 09:52:25;;;;;;;;;;;;;;;25.04;24.12;97533.77;1777035;80;20116;-88
2021/06/05 09:54:54;;;;;;;;;;;;;;;25.20;24.11;97535.25;1767481;80;20101;-80
2021/06/05 09:57:33;;;;;;;;;;;;;;;25.38;24.53;97531.95;1751498;81;20117;-88
2021/06/05 10:00:05;;;;;;;;;;;;;;;25.30;21.89;97534.83;1753777;82;20091;-88
2021/06/05 10:02:35;;;;;;;;;;;;;;;25.27;21.87;97529.34;1753715;82;20154;-81
2021/06/05 10:05:29;;;;;;;;;;;;;;;25.46;21.63;97520.98;1753984;81;20103;-89
2021/06/05 10:08:01;;;;;;;;;;;;;;;25.38;22.69;97523.86;1754261;81;20134;-80
2021/06/05 10:10:33;;;;;;;;;;;;;;;25.51;22.81;97528.45;1735321;82;20111;-88
2021/06/05 10:13:03;;;;;;;;;;;;;;;25.73;22.65;97520.41;1735364;82;20099;-81
2021/06/05 10:15:35;;;;;;;;;;;;;;;25.83;22.07;97521.84;1774893;81;20449;-87
2021/06/05 10:18:05;;;;;;;;;;;;;;;25.80;22.70;97519.59;1779236;80;20122;-81
2021/06/05 10:20:56;;;;;;;;;;;;;;;25.92;22.39;97516.53;1781844;80;20177;-81
2021/06/05 10:23:25;;;;;;;;;;;;;;;25.86;22.99;97515.50;1797931;79;20228;-78
2021/06/05 10:25:59;;;;;;;;;;;;;;;26.08;23.03;97511.19;1790131;79;20108;-88
2021/06/05 10:28:28;;;;;;;;;;;;;;;26.36;24.04;97512.78;1777738;81;20137;-88
2021/06/05 10:30:58;;;;;;;;;;;;;;;26.42;23.29;97509.20;1780424;80;20156;-81
2021/06/05 10:33:37;;;;;;;;;;;;;;;26.53;23.10;97503.66;1795873;80;20148;-80
2021/06/05 10:36:07;;;;;;;;;;;;;;;26.17;21.40;97495.63;1795737;80;20115;-82
2021/06/05 10:38:40;;;;;;;;;;;;;;;26.31;21.80;97506.67;1795376;80;20179;-89
2021/06/05 10:41:10;;;;;;;;;;;;;;;26.34;21.48;97482.44;1795865;80;20104;-81
2021/06/05 10:43:37;;;;;;;;;;;;;;;26.52;23.16;97480.89;1795682;80;20100;-77
2021/06/05 10:46:42;;;;;;;;;;;;;;;26.68;22.37;97484.42;1795550;80;20112;-85
2021/06/05 10:49:18;;;;;;;;;;;;;;;26.48;22.04;97472.39;1796339;80;20103;-79
2021/06/05 10:51:45;;;;;;;;;;;;;;;26.25;22.97;97459.41;1796876;79;20225;-81
2021/06/05 10:54:17;;;;;;;;;;;;;;;26.28;21.80;97476.02;1795902;80;20150;-82
2021/06/05 10:56:59;;;;;;;;;;;;;;;25.94;22.05;97478.00;1797853;80;20157;-82
2021/06/05 10:59:38;;;;;;;;;;;;;;;25.64;22.42;97477.67;1791788;80;20163;-80
2021/06/05 11:02:04;;;;;;;;;;;;;;;25.55;23.61;97473.84;1787956;78;20152;-90
2021/06/05 11:04:39;;;;;;;;;;;;;;;25.53;23.13;97473.22;1789889;80;20125;-80
2021/06/05 11:07:12;;;;;;;;;;;;;;;25.57;23.87;97465.00;1791637;80;20212;-82
2021/06/05 11:09:44;;;;;;;;;;;;;;;25.72;24.10;97466.64;1793285;80;20150;-85
2021/06/05 11:12:17;;;;;;;;;;;;;;;25.90;23.88;97458.39;1775249;80;20105;-78
2021/06/05 11:14:45;;;;;;;;;;;;;;;26.11;23.83;97461.34;1794400;80;20232;-80
2021/06/05 11:17:21;;;;;;;;;;;;;;;26.43;24.27;97460.06;1789279;80;20105;-79
2021/06/05 11:20:06;;;;;;;;;;;;;;;26.70;23.52;97462.06;1761729;81;20144;-85
2021/06/05 11:22:54;;;;;;;;;;;;;;;27.14;24.12;97451.38;1778078;81;20397;-82
2021/06/05 11:25:27;;;;;;;;;;;;;;;27.50;22.81;97453.88;1786369;80;20133;-81
2021/06/05 11:27:53;;;;;;;;;;;;;;;27.71;22.97;97447.20;1786449;80;20163;-84
2021/06/05 11:30:26;;;;;;;;;;;;;;;27.88;22.45;97452.03;1786853;80;20085;-85
2021/06/05 11:33:09;;;;;;;;;;;;;;;27.96;22.13;97453.09;1792647;80;20475;-79
2021/06/05 11:35:52;;;;;;;;;;;;;;;28.13;22.34;97457.38;1801419;80;20091;-82
2021/06/05 11:38:22;;;;;;;;;;;;;;;28.26;21.68;97456.91;1791480;80;20089;-80
2021/06/05 11:40:57;;;;;;;;;;;;;;;28.34;22.82;97456.59;1798887;80;20095;-80
2021/06/05 11:43:33;;;;;;;;;;;;;;;28.35;21.53;97455.54;1798240;80;20226;-79
2021/06/05 11:46:24;;;;;;;;;;;;;;;28.17;21.58;97455.03;1787928;80;20127;-80
2021/06/05 11:49:02;;;;;;;;;;;;;;;28.16;23.65;97442.56;1787772;80;20108;-80
2021/06/05 11:51:40;;;;;;;;;;;;;;;27.91;23.01;97440.73;1792758;80;20172;-81
2021/06/05 11:54:15;;;;;;;;;;;;;;;27.45;22.38;97442.06;1758551;80;20100;-82
2021/06/05 11:56:59;;;;;;;;;;;;;;;27.36;23.24;97439.62;1786725;80;20096;-79
2021/06/05 11:59:35;;;;;;;;;;;;;;;27.32;23.98;97434.38;1787701;80;20167;-83
2021/06/05 12:02:07;;;;;;;;;;;;;;;27.16;23.35;97441.17;1778495;80;20097;-85
2021/06/05 12:04:37;;;;;;;;;;;;;;;26.80;23.16;97443.52;1785524;80;20112;-76
2021/06/05 12:07:07;;;;;;;;;;;;;;;26.33;23.13;97436.20;1764408;81;20138;-80
2021/06/05 12:09:36;;;;;;;;;;;;;;;25.89;23.87;97438.67;1765550;81;20104;-82
2021/06/05 12:12:06;;;;;;;;;;;;;;;25.66;24.12;97437.28;1787818;80;20136;-78
2021/06/05 12:17:33;;;;;;;;;;;;;;;25.31;24.52;97432.64;1779828;80;20191;-78
2021/06/05 12:20:21;;;;;;;;;;;;;;;25.17;24.54;97430.47;1771903;80;20223;-79
2021/06/05 12:22:51;;;;;;;;;;;;;;;24.94;25.00;97428.52;1788686;80;20434;-79
2021/06/05 12:25:24;;;;;;;;;;;;;;;24.98;25.11;97433.50;1720937;81;20089;-80
2021/06/05 12:27:50;;;;;;;;;;;;;;;25.06;25.12;97426.55;1716155;82;20513;-80
2021/06/05 12:30:26;;;;;;;;;;;;;;;25.21;24.89;97420.41;1718243;82;20371;-80
2021/06/05 12:33:01;;;;;;;;;;;;;;;25.16;24.99;97417.52;1741808;81;20406;-87
2021/06/05 12:35:37;;;;;;;;;;;;;;;25.18;25.80;97415.95;1741833;81;20114;-81
2021/06/05 12:38:06;;;;;;;;;;;;;;;25.12;27.36;97413.57;1741842;82;20157;-87
2021/06/05 12:40:54;;;;;;;;;;;;;;;25.06;27.51;97413.06;1741812;82;20126;-79
2021/06/05 12:43:24;;;;;;;;;;;;;;;24.91;27.94;97399.80;1741477;82;20127;-89
2021/06/05 12:45:51;;;;;;;;;;;;;;;24.87;28.28;97393.18;1742597;80;20106;-85
2021/06/05 12:48:18;;;;;;;;;;;;;;;24.82;28.54;97388.91;1741925;81;20181;-80
2021/06/05 12:50:46;;;;;;;;;;;;;;;24.87;28.43;97387.79;1742208;82;20129;-80
2021/06/05 12:53:22;;;;;;;;;;;;;;;25.02;28.18;97390.23;1742875;81;20086;-83
2021/06/05 12:55:51;;;;;;;;;;;;;;;24.99;28.44;97385.28;1742580;82;20105;-86
2021/06/05 12:58:39;;;;;;;;;;;;;;;24.98;28.75;97383.62;1742593;81;20410;-82
2021/06/05 13:01:26;;;;;;;;;;;;;;;25.16;28.40;97382.97;1742024;82;20126;-79
2021/06/05 13:03:53;;;;;;;;;;;;;;;25.31;28.40;97381.39;1742065;82;20094;-79
2021/06/05 13:06:23;;;;;;;;;;;;;;;25.68;28.39;97383.92;1741959;81;20419;-82
2021/06/05 13:08:52;;;;;;;;;;;;;;;25.95;26.78;97380.26;1741835;82;20090;-81
2021/06/05 13:11:42;;;;;;;;;;;;;;;25.94;26.97;97374.58;1742145;81;20134;-78